createdAt,value
2018-11-11T00:00:38.747Z,13.0
2018-11-11T00:01:39.416Z,13.1
2018-11-11T00:02:40.085Z,13.1
2018-11-11T00:03:40.788Z,13.1
2018-11-11T00:04:41.455Z,13.0
2018-11-11T00:05:42.120Z,13.0
2018-11-11T00:06:42.785Z,13.1
2018-11-11T00:07:43.452Z,13.0
2018-11-11T00:08:44.119Z,13.1
2018-11-11T00:09:44.787Z,13.1
2018-11-11T00:10:45.451Z,13.2
2018-11-11T00:11:46.118Z,13.1
2018-11-11T00:12:46.785Z,13.0
2018-11-11T00:13:47.490Z,13.1
2018-11-11T00:14:48.156Z,13.1
2018-11-11T00:15:48.822Z,13.0
2018-11-11T00:16:49.487Z,13.0
2018-11-11T00:17:50.153Z,13.0
2018-11-11T00:18:50.822Z,13.1
2018-11-11T00:19:51.487Z,13.1
2018-11-11T00:20:52.161Z,13.1
2018-11-11T00:21:52.946Z,13.1
2018-11-11T00:22:53.486Z,13.2
2018-11-11T00:23:54.152Z,13.2
2018-11-11T00:24:54.818Z,13.2
2018-11-11T00:25:55.484Z,13.2
2018-11-11T00:26:56.155Z,13.2
2018-11-11T00:27:56.816Z,13.2
2018-11-11T00:28:57.483Z,13.1
2018-11-11T00:29:58.150Z,13.2
2018-11-11T00:30:58.816Z,13.2
2018-11-11T00:31:59.484Z,13.2
2018-11-11T00:33:00.192Z,13.1
2018-11-11T00:34:00.854Z,13.2
2018-11-11T00:35:01.521Z,13.2
2018-11-11T00:36:02.190Z,13.2
2018-11-11T00:37:02.853Z,13.2
2018-11-11T00:38:03.518Z,13.2
2018-11-11T00:39:04.187Z,13.2
2018-11-11T00:40:04.853Z,13.1
2018-11-11T00:41:05.529Z,13.2
2018-11-11T00:42:06.187Z,13.2
2018-11-11T00:43:06.854Z,13.2
2018-11-11T00:44:07.520Z,13.2
2018-11-11T00:45:08.188Z,13.3
2018-11-11T00:46:08.892Z,13.2
2018-11-11T00:47:09.556Z,13.2
2018-11-11T00:48:10.220Z,13.2
2018-11-11T00:49:10.886Z,13.2
2018-11-11T00:50:11.552Z,13.2
2018-11-11T00:51:12.220Z,13.2
2018-11-11T00:52:12.887Z,13.2
2018-11-11T00:53:13.555Z,13.2
2018-11-11T00:54:14.218Z,13.2
2018-11-11T00:55:14.885Z,13.2
2018-11-11T00:56:15.551Z,13.1
2018-11-11T00:57:16.217Z,13.2
2018-11-11T00:58:16.881Z,13.2
2018-11-11T00:59:17.547Z,13.2
2018-11-11T01:00:18.215Z,13.2
2018-11-11T01:01:18.915Z,13.2
2018-11-11T01:02:19.583Z,13.1
2018-11-11T01:03:20.250Z,13.2
2018-11-11T01:04:20.919Z,13.2
2018-11-11T01:05:21.583Z,13.2
2018-11-11T01:06:22.252Z,13.1
2018-11-11T01:07:22.916Z,13.2
2018-11-11T01:08:23.582Z,13.0
2018-11-11T01:09:24.249Z,13.0
2018-11-11T01:10:24.914Z,13.0
2018-11-11T01:11:25.584Z,13.0
2018-11-11T01:12:26.246Z,13.1
2018-11-11T01:13:26.922Z,13.1
2018-11-11T01:14:27.620Z,13.0
2018-11-11T01:15:28.289Z,13.1
2018-11-11T01:16:28.992Z,13.1
2018-11-11T01:17:29.659Z,13.1
2018-11-11T01:18:30.321Z,13.0
2018-11-11T01:19:30.988Z,13.1
2018-11-11T01:20:31.653Z,13.0
2018-11-11T01:21:32.330Z,13.1
2018-11-11T01:22:33.025Z,13.0
2018-11-11T01:23:33.690Z,13.1
2018-11-11T01:24:34.364Z,13.1
2018-11-11T01:25:35.021Z,13.1
2018-11-11T01:26:35.687Z,13.0
2018-11-11T01:27:36.354Z,13.1
2018-11-11T01:28:37.020Z,13.0
2018-11-11T01:29:37.685Z,13.0
2018-11-11T01:30:38.359Z,13.0
2018-11-11T01:31:39.016Z,13.0
2018-11-11T01:32:39.684Z,13.0
2018-11-11T01:33:40.350Z,12.9
2018-11-11T01:34:41.053Z,12.9
2018-11-11T01:35:41.718Z,12.9
2018-11-11T01:36:42.383Z,12.9
2018-11-11T01:37:43.047Z,12.8
2018-11-11T01:38:43.713Z,12.8
2018-11-11T01:39:44.379Z,12.8
2018-11-11T01:40:45.046Z,12.8
2018-11-11T01:41:45.760Z,12.9
2018-11-11T01:42:46.425Z,12.8
2018-11-11T01:43:47.092Z,12.8
2018-11-11T01:44:47.752Z,12.8
2018-11-11T01:45:48.418Z,12.8
2018-11-11T01:46:49.083Z,12.8
2018-11-11T01:47:49.749Z,12.8
2018-11-11T01:48:50.414Z,12.8
2018-11-11T01:49:51.080Z,12.8
2018-11-11T01:50:51.745Z,12.8
2018-11-11T01:51:52.412Z,12.9
2018-11-11T01:52:53.079Z,12.8
2018-11-11T01:53:53.747Z,12.9
2018-11-11T01:54:54.409Z,12.8
2018-11-11T01:55:55.084Z,12.8
2018-11-11T01:56:55.740Z,12.8
2018-11-11T01:57:56.406Z,12.8
2018-11-11T01:58:57.081Z,12.8
2018-11-11T01:59:57.737Z,12.8
2018-11-11T02:00:58.402Z,12.7
2018-11-11T02:01:59.072Z,12.7
2018-11-11T02:02:59.776Z,12.7
2018-11-11T02:04:00.445Z,12.6
2018-11-11T02:05:01.153Z,12.6
2018-11-11T02:06:01.854Z,12.6
2018-11-11T02:07:02.518Z,12.5
2018-11-11T02:08:03.184Z,12.5
2018-11-11T02:09:03.850Z,12.6
2018-11-11T02:10:04.517Z,12.5
2018-11-11T02:11:05.185Z,12.5
2018-11-11T02:12:05.846Z,12.4
2018-11-11T02:13:06.513Z,12.5
2018-11-11T02:14:07.177Z,12.5
2018-11-11T02:15:07.842Z,12.5
2018-11-11T02:16:08.507Z,12.5
2018-11-11T02:17:09.174Z,12.6
2018-11-11T02:18:09.840Z,12.6
2018-11-11T02:19:10.503Z,12.5
2018-11-11T02:20:11.219Z,12.5
2018-11-11T02:21:11.958Z,12.5
2018-11-11T02:22:12.589Z,12.6
2018-11-11T02:23:13.254Z,12.5
2018-11-11T02:24:13.921Z,12.6
2018-11-11T02:25:14.582Z,12.6
2018-11-11T02:26:15.248Z,12.7
2018-11-11T02:27:15.919Z,12.6
2018-11-11T02:28:16.583Z,12.6
2018-11-11T02:29:17.247Z,12.6
2018-11-11T02:30:17.917Z,12.6
2018-11-11T02:31:18.579Z,12.6
2018-11-11T02:32:19.246Z,12.6
2018-11-11T02:33:19.920Z,12.6
2018-11-11T02:34:20.579Z,12.7
2018-11-11T02:35:21.241Z,12.7
2018-11-11T02:36:21.907Z,12.6
2018-11-11T02:37:22.659Z,12.7
2018-11-11T02:38:23.238Z,12.7
2018-11-11T02:39:23.904Z,12.7
2018-11-11T02:40:24.570Z,12.8
2018-11-11T02:41:25.232Z,12.7
2018-11-11T02:42:25.898Z,12.7
2018-11-11T02:43:26.563Z,12.7
2018-11-11T02:44:27.229Z,12.8
2018-11-11T02:45:27.895Z,12.7
2018-11-11T02:46:28.612Z,12.7
2018-11-11T02:47:29.318Z,12.7
2018-11-11T02:48:29.983Z,12.8
2018-11-11T02:49:30.648Z,12.7
2018-11-11T02:50:31.313Z,12.8
2018-11-11T02:51:31.980Z,12.7
2018-11-11T02:52:32.644Z,12.8
2018-11-11T02:53:33.311Z,12.8
2018-11-11T02:54:33.975Z,12.8
2018-11-11T02:55:34.641Z,12.7
2018-11-11T02:56:35.306Z,12.8
2018-11-11T02:57:35.970Z,12.7
2018-11-11T02:58:36.637Z,12.7
2018-11-11T02:59:37.303Z,12.8
2018-11-11T03:00:37.970Z,12.8
2018-11-11T03:01:38.640Z,12.8
2018-11-11T03:02:39.301Z,12.8
2018-11-11T03:03:39.966Z,12.8
2018-11-11T03:04:40.632Z,12.8
2018-11-11T03:05:41.297Z,12.8
2018-11-11T03:06:41.962Z,12.7
2018-11-11T03:07:42.628Z,12.8
2018-11-11T03:08:43.292Z,12.8
2018-11-11T03:09:43.967Z,12.7
2018-11-11T03:10:44.627Z,12.8
2018-11-11T03:11:45.294Z,12.8
2018-11-11T03:12:45.958Z,12.8
2018-11-11T03:13:46.626Z,12.6
2018-11-11T03:14:47.289Z,12.7
2018-11-11T03:15:47.956Z,12.8
2018-11-11T03:16:48.621Z,12.8
2018-11-11T03:17:49.296Z,12.8
2018-11-11T03:18:49.950Z,12.7
2018-11-11T03:19:50.615Z,12.8
2018-11-11T03:20:51.289Z,12.8
2018-11-11T03:21:51.987Z,12.8
2018-11-11T03:22:52.649Z,12.8
2018-11-11T03:23:53.316Z,12.9
2018-11-11T03:24:53.983Z,12.9
2018-11-11T03:25:54.648Z,12.9
2018-11-11T03:26:55.315Z,13.0
2018-11-11T03:27:55.983Z,12.9
2018-11-11T03:28:56.686Z,13.0
2018-11-11T03:29:57.352Z,13.0
2018-11-11T03:30:58.019Z,13.0
2018-11-11T03:31:58.685Z,13.0
2018-11-11T03:32:59.392Z,12.9
2018-11-11T03:34:00.054Z,13.0
2018-11-11T03:35:00.760Z,13.1
2018-11-11T03:36:01.425Z,12.9
2018-11-11T03:37:02.095Z,13.0
2018-11-11T03:38:02.803Z,13.0
2018-11-11T03:39:03.466Z,13.0
2018-11-11T03:40:04.132Z,12.9
2018-11-11T03:41:04.801Z,13.0
2018-11-11T03:42:05.504Z,13.0
2018-11-11T03:43:06.170Z,12.9
2018-11-11T03:44:06.838Z,12.9
2018-11-11T03:45:07.501Z,12.9
2018-11-11T03:46:08.166Z,12.9
2018-11-11T03:47:08.835Z,12.9
2018-11-11T03:48:09.499Z,12.9
2018-11-11T03:49:10.165Z,12.8
2018-11-11T03:50:10.832Z,12.8
2018-11-11T03:51:11.499Z,12.9
2018-11-11T03:52:12.201Z,12.8
2018-11-11T03:53:12.866Z,12.8
2018-11-11T03:54:13.578Z,12.6
2018-11-11T03:55:14.236Z,12.6
2018-11-11T03:56:14.903Z,12.6
2018-11-11T03:57:15.568Z,12.5
2018-11-11T03:58:16.236Z,12.4
2018-11-11T03:59:16.938Z,12.4
2018-11-11T04:00:17.602Z,12.4
2018-11-11T04:01:18.270Z,12.3
2018-11-11T04:02:18.970Z,12.4
2018-11-11T04:03:19.636Z,12.3
2018-11-11T04:04:20.302Z,12.3
2018-11-11T04:05:20.970Z,12.3
2018-11-11T04:06:21.634Z,12.3
2018-11-11T04:07:22.303Z,12.2
2018-11-11T04:08:23.002Z,12.2
2018-11-11T04:09:23.707Z,12.3
2018-11-11T04:10:24.444Z,12.2
2018-11-11T04:11:25.036Z,12.2
2018-11-11T04:12:25.741Z,12.2
2018-11-11T04:13:26.407Z,12.2
2018-11-11T04:14:27.075Z,12.3
2018-11-11T04:15:27.738Z,12.2
2018-11-11T04:16:28.403Z,12.3
2018-11-11T04:17:29.071Z,12.2
2018-11-11T04:18:29.734Z,12.2
2018-11-11T04:19:30.440Z,12.2
2018-11-11T04:20:31.067Z,12.2
2018-11-11T04:21:31.733Z,12.2
2018-11-11T04:22:32.437Z,12.2
2018-11-11T04:23:33.101Z,12.1
2018-11-11T04:24:33.767Z,12.1
2018-11-11T04:25:34.432Z,12.2
2018-11-11T04:26:35.096Z,12.2
2018-11-11T04:27:35.761Z,12.1
2018-11-11T04:28:36.426Z,12.2
2018-11-11T04:29:37.094Z,12.2
2018-11-11T04:30:37.757Z,12.1
2018-11-11T04:31:38.423Z,12.1
2018-11-11T04:32:39.090Z,12.1
2018-11-11T04:33:39.756Z,12.2
2018-11-11T04:34:40.429Z,12.2
2018-11-11T04:35:41.087Z,12.1
2018-11-11T04:36:41.752Z,12.1
2018-11-11T04:37:42.417Z,12.2
2018-11-11T04:38:43.080Z,12.1
2018-11-11T04:39:43.746Z,12.2
2018-11-11T04:40:44.461Z,12.2
2018-11-11T04:41:45.128Z,12.1
2018-11-11T04:42:45.834Z,12.1
2018-11-11T04:43:46.499Z,12.1
2018-11-11T04:44:47.166Z,12.1
2018-11-11T04:45:47.827Z,12.1
2018-11-11T04:46:48.495Z,12.1
2018-11-11T04:47:49.159Z,11.9
2018-11-11T04:48:49.824Z,12.0
2018-11-11T04:49:50.489Z,12.0
2018-11-11T04:50:51.196Z,12.0
2018-11-11T04:51:51.908Z,11.9
2018-11-11T04:52:52.564Z,12.0
2018-11-11T04:53:53.229Z,12.0
2018-11-11T04:54:53.895Z,11.9
2018-11-11T04:55:54.570Z,11.8
2018-11-11T04:56:55.270Z,11.9
2018-11-11T04:57:55.932Z,11.8
2018-11-11T04:58:56.607Z,11.8
2018-11-11T04:59:57.266Z,11.7
2018-11-11T05:00:57.973Z,11.7
2018-11-11T05:01:58.632Z,11.7
2018-11-11T05:02:59.296Z,11.7
2018-11-11T05:03:59.970Z,11.7
2018-11-11T05:05:00.624Z,11.7
2018-11-11T05:06:01.292Z,11.7
2018-11-11T05:07:01.956Z,11.7
2018-11-11T05:08:02.625Z,11.7
2018-11-11T05:09:03.291Z,11.7
2018-11-11T05:10:03.954Z,11.6
2018-11-11T05:11:04.617Z,11.6
2018-11-11T05:12:05.283Z,11.6
2018-11-11T05:13:05.975Z,11.6
2018-11-11T05:14:06.613Z,11.6
2018-11-11T05:15:07.280Z,11.5
2018-11-11T05:16:07.946Z,11.6
2018-11-11T05:17:08.608Z,11.5
2018-11-11T05:18:09.275Z,11.6
2018-11-11T05:19:09.940Z,11.5
2018-11-11T05:20:10.608Z,11.5
2018-11-11T05:21:11.268Z,11.6
2018-11-11T05:22:11.934Z,11.5
2018-11-11T05:23:12.637Z,11.5
2018-11-11T05:24:13.311Z,11.6
2018-11-11T05:25:14.011Z,11.5
2018-11-11T05:26:14.712Z,11.5
2018-11-11T05:27:15.377Z,11.4
2018-11-11T05:28:16.042Z,11.5
2018-11-11T05:29:16.705Z,11.5
2018-11-11T05:30:17.368Z,11.5
2018-11-11T05:31:18.033Z,11.5
2018-11-11T05:32:18.697Z,11.3
2018-11-11T05:33:19.403Z,11.3
2018-11-11T05:34:20.068Z,11.3
2018-11-11T05:35:20.734Z,11.3
2018-11-11T05:36:21.398Z,11.2
2018-11-11T05:37:22.064Z,11.3
2018-11-11T05:38:22.728Z,11.1
2018-11-11T05:39:23.393Z,11.0
2018-11-11T05:40:24.059Z,11.1
2018-11-11T05:41:24.723Z,11.2
2018-11-11T05:42:25.386Z,11.0
2018-11-11T05:43:26.091Z,11.0
2018-11-11T05:44:26.756Z,11.0
2018-11-11T05:45:27.424Z,10.9
2018-11-11T05:46:28.090Z,10.9
2018-11-11T05:47:28.754Z,10.9
2018-11-11T05:48:29.420Z,10.8
2018-11-11T05:49:30.126Z,10.8
2018-11-11T05:50:30.787Z,10.7
2018-11-11T05:51:31.457Z,10.8
2018-11-11T05:52:32.158Z,10.7
2018-11-11T05:53:32.823Z,10.6
2018-11-11T05:54:33.487Z,10.6
2018-11-11T05:55:34.153Z,10.6
2018-11-11T05:56:34.852Z,10.6
2018-11-11T05:57:35.517Z,10.7
2018-11-11T05:58:36.181Z,10.5
2018-11-11T05:59:36.846Z,10.6
2018-11-11T06:00:37.512Z,10.6
2018-11-11T06:01:38.178Z,10.6
2018-11-11T06:02:38.851Z,10.5
2018-11-11T06:03:39.544Z,10.5
2018-11-11T06:04:40.208Z,10.4
2018-11-11T06:05:40.875Z,10.4
2018-11-11T06:06:41.540Z,10.5
2018-11-11T06:07:42.205Z,10.4
2018-11-11T06:08:42.870Z,10.4
2018-11-11T06:09:43.535Z,10.4
2018-11-11T06:10:44.203Z,10.4
2018-11-11T06:11:44.870Z,10.3
2018-11-11T06:12:45.536Z,10.3
2018-11-11T06:13:46.201Z,10.3
2018-11-11T06:14:46.865Z,10.3
2018-11-11T06:15:47.531Z,10.3
2018-11-11T06:16:48.195Z,10.3
2018-11-11T06:17:48.868Z,10.3
2018-11-11T06:18:49.535Z,10.2
2018-11-11T06:19:50.192Z,10.2
2018-11-11T06:20:50.858Z,10.2
2018-11-11T06:21:51.525Z,10.2
2018-11-11T06:22:52.213Z,10.2
2018-11-11T06:23:52.897Z,10.2
2018-11-11T06:24:53.562Z,10.2
2018-11-11T06:25:54.229Z,10.2
2018-11-11T06:26:54.896Z,10.2
2018-11-11T06:27:55.563Z,10.1
2018-11-11T06:28:56.229Z,10.1
2018-11-11T06:29:56.934Z,10.2
2018-11-11T06:30:57.600Z,10.1
2018-11-11T06:31:58.268Z,10.1
2018-11-11T06:32:58.933Z,10.1
2018-11-11T06:33:59.661Z,10.1
2018-11-11T06:35:00.265Z,10.1
2018-11-11T06:36:00.932Z,10.1
2018-11-11T06:37:01.599Z,10.0
2018-11-11T06:38:02.304Z,10.0
2018-11-11T06:39:02.969Z,10.1
2018-11-11T06:40:03.647Z,10.0
2018-11-11T06:41:04.338Z,9.9
2018-11-11T06:42:05.007Z,10.0
2018-11-11T06:43:05.675Z,9.9
2018-11-11T06:44:06.384Z,9.9
2018-11-11T06:45:07.050Z,10.0
2018-11-11T06:46:07.716Z,9.9
2018-11-11T06:47:08.383Z,10.0
2018-11-11T06:48:09.082Z,10.0
2018-11-11T06:49:09.717Z,10.0
2018-11-11T06:50:10.426Z,9.9
2018-11-11T06:51:11.133Z,9.9
2018-11-11T06:52:11.795Z,9.9
2018-11-11T06:53:12.459Z,9.9
2018-11-11T06:54:13.127Z,9.9
2018-11-11T06:55:13.795Z,9.8
2018-11-11T06:56:14.464Z,10.0
2018-11-11T06:57:15.134Z,9.8
2018-11-11T06:58:15.985Z,9.9
2018-11-11T06:59:16.507Z,9.9
2018-11-11T07:00:17.177Z,9.9
2018-11-11T07:01:17.932Z,9.9
2018-11-11T07:02:18.599Z,9.8
2018-11-11T07:03:19.268Z,9.9
2018-11-11T07:04:19.935Z,9.8
2018-11-11T07:05:20.602Z,9.9
2018-11-11T07:06:21.271Z,9.9
2018-11-11T07:07:21.981Z,9.9
2018-11-11T07:08:22.608Z,9.8
2018-11-11T07:09:23.275Z,9.9
2018-11-11T07:10:23.944Z,9.9
2018-11-11T07:11:24.613Z,9.9
2018-11-11T07:12:25.285Z,10.0
2018-11-11T07:13:25.948Z,9.9
2018-11-11T07:14:26.624Z,10.0
2018-11-11T07:15:27.327Z,10.0
2018-11-11T07:16:27.996Z,10.0
2018-11-11T07:17:28.664Z,10.0
2018-11-11T07:18:29.332Z,10.0
2018-11-11T07:19:30.004Z,10.0
2018-11-11T07:20:30.673Z,10.0
2018-11-11T07:21:31.344Z,10.0
2018-11-11T07:22:32.014Z,10.0
2018-11-11T07:23:32.728Z,10.1
2018-11-11T07:24:33.352Z,10.0
2018-11-11T07:25:34.023Z,10.1
2018-11-11T07:26:34.696Z,10.1
2018-11-11T07:27:35.360Z,10.1
2018-11-11T07:28:36.030Z,10.1
2018-11-11T07:29:36.703Z,10.0
2018-11-11T07:30:37.369Z,10.0
2018-11-11T07:31:38.037Z,10.1
2018-11-11T07:32:38.705Z,10.1
2018-11-11T07:33:39.375Z,10.0
2018-11-11T07:34:40.044Z,10.1
2018-11-11T07:35:40.714Z,10.1
2018-11-11T07:36:41.386Z,10.2
2018-11-11T07:37:42.054Z,10.2
2018-11-11T07:38:42.725Z,10.2
2018-11-11T07:39:43.445Z,10.3
2018-11-11T07:40:44.115Z,10.3
2018-11-11T07:41:44.785Z,10.3
2018-11-11T07:42:45.458Z,10.3
2018-11-11T07:43:46.122Z,10.4
2018-11-11T07:44:46.791Z,10.4
2018-11-11T07:45:47.459Z,10.4
2018-11-11T07:46:48.129Z,10.4
2018-11-11T07:47:48.822Z,10.7
2018-11-11T07:48:49.507Z,10.6
2018-11-11T07:49:50.170Z,10.6
2018-11-11T07:50:50.839Z,10.8
2018-11-11T07:51:51.528Z,10.8
2018-11-11T07:52:52.177Z,10.8
2018-11-11T07:53:52.845Z,11.0
2018-11-11T07:54:53.563Z,11.0
2018-11-11T07:55:54.186Z,11.1
2018-11-11T07:56:54.890Z,11.3
2018-11-11T07:57:55.561Z,11.3
2018-11-11T07:58:56.231Z,11.4
2018-11-11T07:59:56.898Z,11.4
2018-11-11T08:00:57.569Z,11.5
2018-11-11T08:01:58.299Z,11.5
2018-11-11T08:02:58.908Z,11.5
2018-11-11T08:03:59.577Z,11.5
2018-11-11T08:05:00.247Z,11.6
2018-11-11T08:06:00.916Z,11.6
2018-11-11T08:07:01.585Z,11.5
2018-11-11T08:08:02.256Z,11.7
2018-11-11T08:09:02.926Z,11.6
2018-11-11T08:10:03.663Z,11.6
2018-11-11T08:11:04.372Z,11.7
2018-11-11T08:12:05.050Z,11.7
2018-11-11T08:13:05.757Z,11.7
2018-11-11T08:14:06.425Z,11.7
2018-11-11T08:15:07.096Z,11.7
2018-11-11T08:16:07.765Z,11.8
2018-11-11T08:17:08.436Z,11.8
2018-11-11T08:18:09.106Z,11.8
2018-11-11T08:19:09.775Z,11.8
2018-11-11T08:20:10.452Z,11.8
2018-11-11T08:21:11.151Z,11.8
2018-11-11T08:22:11.826Z,11.8
2018-11-11T08:23:12.536Z,11.8
2018-11-11T08:24:13.204Z,11.9
2018-11-11T08:25:13.901Z,11.8
2018-11-11T08:26:14.540Z,11.8
2018-11-11T08:27:15.210Z,11.8
2018-11-11T08:28:15.876Z,11.8
2018-11-11T08:29:16.545Z,11.8
2018-11-11T08:30:17.214Z,11.9
2018-11-11T08:31:17.881Z,11.8
2018-11-11T08:32:18.599Z,11.9
2018-11-11T08:33:19.225Z,11.8
2018-11-11T08:34:19.933Z,11.9
2018-11-11T08:35:20.637Z,11.8
2018-11-11T08:36:21.306Z,11.8
2018-11-11T08:37:21.974Z,11.9
2018-11-11T08:38:22.641Z,11.9
2018-11-11T08:39:23.309Z,11.9
2018-11-11T08:40:24.015Z,11.8
2018-11-11T08:41:24.643Z,11.9
2018-11-11T08:42:25.312Z,11.9
2018-11-11T08:43:25.982Z,11.8
2018-11-11T08:44:26.681Z,11.8
2018-11-11T08:45:27.358Z,11.9
2018-11-11T08:46:28.068Z,11.8
2018-11-11T08:47:28.737Z,11.9
2018-11-11T08:48:29.407Z,12.0
2018-11-11T08:49:30.077Z,11.9
2018-11-11T08:50:30.782Z,11.9
2018-11-11T08:51:31.453Z,11.9
2018-11-11T08:52:32.163Z,11.9
2018-11-11T08:53:32.833Z,12.0
2018-11-11T08:54:33.526Z,12.0
2018-11-11T08:55:34.217Z,12.1
2018-11-11T08:56:34.921Z,12.0
2018-11-11T08:57:35.590Z,12.0
2018-11-11T08:58:36.265Z,12.1
2018-11-11T08:59:36.955Z,12.1
2018-11-11T09:00:37.639Z,12.1
2018-11-11T09:01:38.330Z,11.9
2018-11-11T09:02:39.061Z,12.1
2018-11-11T09:03:39.732Z,12.0
2018-11-11T09:04:40.455Z,12.1
2018-11-11T09:05:41.106Z,12.0
2018-11-11T09:06:41.776Z,12.1
2018-11-11T09:07:42.447Z,12.1
2018-11-11T09:08:43.116Z,12.0
2018-11-11T09:09:43.795Z,12.0
2018-11-11T09:10:44.470Z,12.1
2018-11-11T09:11:45.168Z,12.1
2018-11-11T09:12:45.878Z,12.0
2018-11-11T09:13:46.551Z,12.1
2018-11-11T09:14:47.222Z,12.2
2018-11-11T09:15:47.904Z,12.2
2018-11-11T09:16:48.605Z,12.2
2018-11-11T09:17:49.277Z,12.3
2018-11-11T09:18:49.952Z,12.3
2018-11-11T09:19:50.621Z,12.3
2018-11-11T09:20:51.291Z,12.4
2018-11-11T09:21:51.961Z,12.3
2018-11-11T09:22:52.630Z,12.4
2018-11-11T09:23:53.346Z,12.5
2018-11-11T09:24:53.976Z,12.4
2018-11-11T09:25:54.653Z,12.5
2018-11-11T09:26:55.364Z,12.6
2018-11-11T09:27:56.026Z,12.5
2018-11-11T09:28:56.701Z,12.6
2018-11-11T09:29:57.369Z,12.6
2018-11-11T09:30:58.039Z,12.6
2018-11-11T09:31:58.710Z,12.6
2018-11-11T09:32:59.381Z,12.7
2018-11-11T09:34:00.050Z,12.6
2018-11-11T09:35:00.757Z,12.6
2018-11-11T09:36:01.425Z,12.7
2018-11-11T09:37:02.122Z,12.7
2018-11-11T09:38:02.805Z,12.7
2018-11-11T09:39:03.485Z,12.6
2018-11-11T09:40:04.144Z,12.7
2018-11-11T09:41:04.818Z,12.6
2018-11-11T09:42:05.525Z,12.6
2018-11-11T09:43:06.199Z,12.6
2018-11-11T09:44:06.906Z,12.7
2018-11-11T09:45:07.577Z,12.7
2018-11-11T09:46:08.247Z,12.8
2018-11-11T09:47:08.920Z,12.8
2018-11-11T09:48:09.590Z,12.8
2018-11-11T09:49:10.261Z,12.8
2018-11-11T09:50:10.933Z,12.8
2018-11-11T09:51:11.603Z,12.8
2018-11-11T09:52:12.277Z,12.9
2018-11-11T09:53:12.948Z,13.0
2018-11-11T09:54:13.691Z,13.1
2018-11-11T09:55:14.292Z,13.1
2018-11-11T09:56:14.968Z,13.2
2018-11-11T09:57:15.635Z,13.2
2018-11-11T09:58:16.306Z,13.4
2018-11-11T09:59:16.979Z,13.5
2018-11-11T10:00:17.693Z,13.6
2018-11-11T10:01:18.363Z,13.6
2018-11-11T10:02:19.032Z,13.7
2018-11-11T10:03:19.718Z,13.7
2018-11-11T10:04:20.419Z,13.7
2018-11-11T10:05:21.129Z,13.6
2018-11-11T10:06:21.859Z,13.6
2018-11-11T10:07:22.542Z,13.6
2018-11-11T10:08:23.214Z,13.5
2018-11-11T10:09:23.886Z,13.5
2018-11-11T10:10:24.558Z,13.6
2018-11-11T10:11:25.236Z,13.5
2018-11-11T10:12:26.009Z,13.6
2018-11-11T10:13:26.608Z,13.5
2018-11-11T10:14:27.307Z,13.4
2018-11-11T10:15:27.990Z,13.4
2018-11-11T10:16:28.661Z,13.4
2018-11-11T10:17:29.331Z,13.4
2018-11-11T10:18:30.002Z,13.4
2018-11-11T10:19:30.673Z,13.4
2018-11-11T10:20:31.349Z,13.5
2018-11-11T10:21:32.017Z,13.5
2018-11-11T10:22:32.688Z,13.6
2018-11-11T10:23:33.398Z,13.5
2018-11-11T10:24:34.072Z,13.6
2018-11-11T10:25:34.772Z,13.6
2018-11-11T10:26:35.454Z,13.5
2018-11-11T10:27:36.179Z,13.6
2018-11-11T10:28:36.874Z,13.6
2018-11-11T10:29:37.626Z,13.6
2018-11-11T10:30:38.263Z,13.6
2018-11-11T10:31:38.927Z,13.8
2018-11-11T10:32:39.598Z,13.7
2018-11-11T10:33:40.346Z,13.8
2018-11-11T10:34:40.938Z,13.7
2018-11-11T10:35:41.630Z,13.8
2018-11-11T10:36:42.322Z,13.9
2018-11-11T10:37:42.993Z,13.8
2018-11-11T10:38:43.664Z,13.9
2018-11-11T10:39:44.371Z,13.9
2018-11-11T10:40:45.005Z,13.9
2018-11-11T10:41:45.676Z,13.9
2018-11-11T10:42:46.348Z,14.1
2018-11-11T10:43:47.020Z,14.1
2018-11-11T10:44:47.691Z,14.1
2018-11-11T10:45:48.364Z,14.1
2018-11-11T10:46:49.034Z,14.1
2018-11-11T10:47:49.705Z,14.2
2018-11-11T10:48:50.375Z,14.3
2018-11-11T10:49:51.056Z,14.2
2018-11-11T10:50:51.758Z,14.3
2018-11-11T10:51:52.478Z,14.2
2018-11-11T10:52:53.185Z,14.3
2018-11-11T10:53:53.857Z,14.4
2018-11-11T10:54:54.561Z,14.4
2018-11-11T10:55:55.230Z,14.4
2018-11-11T10:56:55.941Z,14.3
2018-11-11T10:57:56.614Z,14.4
2018-11-11T10:58:57.283Z,14.4
2018-11-11T10:59:58.036Z,14.5
2018-11-11T11:00:58.659Z,14.4
2018-11-11T11:01:59.330Z,14.4
2018-11-11T11:03:00.003Z,14.4
2018-11-11T11:04:00.676Z,14.5
2018-11-11T11:05:01.350Z,14.5
2018-11-11T11:06:02.108Z,14.6
2018-11-11T11:07:02.729Z,14.5
2018-11-11T11:08:03.398Z,14.5
2018-11-11T11:09:04.069Z,14.6
2018-11-11T11:10:04.742Z,14.6
2018-11-11T11:11:05.448Z,14.6
2018-11-11T11:12:06.125Z,14.6
2018-11-11T11:13:06.797Z,14.7
2018-11-11T11:14:07.467Z,14.7
2018-11-11T11:15:08.139Z,14.7
2018-11-11T11:16:08.850Z,14.8
2018-11-11T11:17:09.522Z,14.7
2018-11-11T11:18:10.194Z,14.8
2018-11-11T11:19:10.890Z,14.8
2018-11-11T11:20:11.578Z,14.8
2018-11-11T11:21:12.250Z,14.7
2018-11-11T11:22:12.920Z,14.8
2018-11-11T11:23:13.616Z,14.8
2018-11-11T11:24:14.304Z,14.9
2018-11-11T11:25:14.974Z,14.8
2018-11-11T11:26:15.648Z,14.9
2018-11-11T11:27:16.391Z,14.8
2018-11-11T11:28:17.025Z,14.8
2018-11-11T11:29:17.694Z,15.0
2018-11-11T11:30:18.365Z,14.9
2018-11-11T11:31:19.075Z,14.9
2018-11-11T11:32:19.709Z,15.0
2018-11-11T11:33:20.420Z,15.0
2018-11-11T11:34:21.116Z,15.0
2018-11-11T11:35:21.803Z,15.1
2018-11-11T11:36:22.511Z,15.1
2018-11-11T11:37:23.183Z,15.1
2018-11-11T11:38:23.941Z,15.1
2018-11-11T11:39:24.527Z,15.1
2018-11-11T11:40:25.238Z,15.1
2018-11-11T11:41:25.966Z,15.0
2018-11-11T11:42:26.591Z,15.0
2018-11-11T11:43:27.253Z,15.1
2018-11-11T11:44:27.923Z,15.0
2018-11-11T11:45:28.593Z,15.0
2018-11-11T11:46:29.265Z,15.1
2018-11-11T11:47:30.052Z,15.0
2018-11-11T11:48:30.607Z,15.0
2018-11-11T11:49:31.281Z,15.1
2018-11-11T11:50:32.023Z,15.0
2018-11-11T11:51:32.623Z,15.1
2018-11-11T11:52:33.348Z,15.0
2018-11-11T11:53:34.016Z,15.0
2018-11-11T11:54:34.688Z,15.0
2018-11-11T11:55:35.360Z,15.0
2018-11-11T11:56:36.072Z,15.0
2018-11-11T11:57:36.743Z,15.0
2018-11-11T11:58:37.413Z,15.0
2018-11-11T11:59:38.085Z,15.0
2018-11-11T12:00:38.759Z,15.2
2018-11-11T12:01:39.434Z,15.3
2018-11-11T12:02:40.106Z,15.3
2018-11-11T12:03:40.779Z,15.4
2018-11-11T12:04:41.451Z,15.4
2018-11-11T12:05:42.123Z,15.4
2018-11-11T12:06:42.794Z,15.4
2018-11-11T12:07:43.465Z,15.4
2018-11-11T12:08:44.269Z,15.5
2018-11-11T12:09:44.830Z,15.4
2018-11-11T12:10:45.523Z,15.4
2018-11-11T12:11:46.267Z,15.5
2018-11-11T12:12:47.148Z,15.5
2018-11-11T12:13:47.859Z,15.4
2018-11-11T12:14:48.529Z,15.5
2018-11-11T12:15:49.201Z,15.4
2018-11-11T12:16:49.889Z,15.5
2018-11-11T12:17:50.545Z,15.4
2018-11-11T12:18:51.220Z,15.5
2018-11-11T12:19:51.898Z,15.4
2018-11-11T12:20:52.560Z,15.5
2018-11-11T12:21:53.232Z,15.4
2018-11-11T12:22:53.904Z,15.5
2018-11-11T12:23:54.578Z,15.5
2018-11-11T12:24:55.255Z,15.4
2018-11-11T12:25:55.960Z,15.4
2018-11-11T12:26:56.632Z,15.3
2018-11-11T12:27:57.305Z,15.3
2018-11-11T12:28:57.976Z,15.1
2018-11-11T12:29:58.678Z,15.1
2018-11-11T12:30:59.372Z,15.1
2018-11-11T12:32:00.032Z,15.0
2018-11-11T12:33:00.706Z,15.0
2018-11-11T12:34:01.385Z,15.0
2018-11-11T12:35:02.084Z,15.0
2018-11-11T12:36:02.743Z,15.0
2018-11-11T12:37:03.433Z,15.0
2018-11-11T12:38:04.111Z,15.1
2018-11-11T12:39:04.801Z,15.0
2018-11-11T12:40:05.643Z,15.0
2018-11-11T12:41:06.131Z,15.0
2018-11-11T12:42:06.838Z,15.0
2018-11-11T12:43:07.535Z,15.1
2018-11-11T12:44:08.184Z,15.0
2018-11-11T12:45:08.855Z,15.0
2018-11-11T12:46:09.565Z,15.1
2018-11-11T12:47:10.272Z,15.2
2018-11-11T12:48:10.914Z,15.2
2018-11-11T12:49:11.687Z,15.2
2018-11-11T12:50:12.329Z,15.2
2018-11-11T12:51:12.972Z,15.3
2018-11-11T12:52:13.659Z,15.4
2018-11-11T12:53:14.363Z,15.3
2018-11-11T12:54:15.031Z,15.4
2018-11-11T12:55:15.790Z,15.5
2018-11-11T12:56:16.414Z,15.5
2018-11-11T12:57:17.126Z,15.4
2018-11-11T12:58:17.838Z,15.5
2018-11-11T12:59:18.512Z,15.4
2018-11-11T13:00:19.530Z,15.5
2018-11-11T13:01:20.133Z,15.6
2018-11-11T13:02:20.828Z,15.5
2018-11-11T13:03:21.520Z,15.5
2018-11-11T13:04:22.192Z,15.4
2018-11-11T13:05:22.862Z,15.4
2018-11-11T13:06:23.534Z,15.5
2018-11-11T13:07:24.208Z,15.4
2018-11-11T13:08:24.882Z,15.5
2018-11-11T13:09:25.554Z,15.5
2018-11-11T13:10:26.228Z,15.5
2018-11-11T13:11:26.933Z,15.4
2018-11-11T13:12:27.795Z,15.4
2018-11-11T13:13:28.244Z,15.5
2018-11-11T13:14:28.956Z,15.5
2018-11-11T13:15:29.650Z,15.4
2018-11-11T13:16:30.354Z,15.4
2018-11-11T13:17:31.016Z,15.5
2018-11-11T13:18:31.688Z,15.6
2018-11-11T13:19:32.373Z,15.5
2018-11-11T13:20:33.034Z,15.6
2018-11-11T13:21:33.709Z,15.6
2018-11-11T13:22:34.411Z,15.7
2018-11-11T13:23:35.068Z,15.8
2018-11-11T13:24:35.767Z,15.8
2018-11-11T13:25:36.440Z,15.8
2018-11-11T13:26:37.116Z,15.8
2018-11-11T13:27:37.792Z,16.0
2018-11-11T13:28:38.465Z,16.0